sensor_id;sensor_type;location;lat;lon;timestamp;P1;durP1;ratioP1;P2;durP2;ratioP2
35675;SDS011;21790;42.668;23.298;2022-10-17T00:01:32;11.32;;;7.22;;
35675;SDS011;21790;42.668;23.298;2022-10-17T00:03:58;16.15;;;7.10;;
35675;SDS011;21790;42.668;23.298;2022-10-17T00:06:23;15.50;;;7.72;;
35675;SDS011;21790;42.668;23.298;2022-10-17T00:08:49;14.40;;;6.78;;
35675;SDS011;21790;42.668;23.298;2022-10-17T00:11:16;13.13;;;7.32;;
35675;SDS011;21790;42.668;23.298;2022-10-17T00:13:45;14.18;;;7.30;;
35675;SDS011;21790;42.668;23.298;2022-10-17T00:16:12;13.30;;;7.32;;
35675;SDS011;21790;42.668;23.298;2022-10-17T00:18:38;11.43;;;6.97;;
35675;SDS011;21790;42.668;23.298;2022-10-17T00:21:04;15.00;;;7.07;;
35675;SDS011;21790;42.668;23.298;2022-10-17T00:23:29;12.23;;;7.18;;
35675;SDS011;21790;42.668;23.298;2022-10-17T00:26:03;11.50;;;7.03;;
35675;SDS011;21790;42.668;23.298;2022-10-17T00:28:29;17.80;;;7.88;;
35675;SDS011;21790;42.668;23.298;2022-10-17T00:30:57;13.02;;;7.30;;
35675;SDS011;21790;42.668;23.298;2022-10-17T00:33:25;16.33;;;6.95;;
35675;SDS011;21790;42.668;23.298;2022-10-17T00:36:00;13.90;;;6.63;;
35675;SDS011;21790;42.668;23.298;2022-10-17T00:38:27;11.68;;;7.13;;
35675;SDS011;21790;42.668;23.298;2022-10-17T00:40:53;13.82;;;7.50;;
35675;SDS011;21790;42.668;23.298;2022-10-17T00:43:18;17.35;;;8.02;;
35675;SDS011;21790;42.668;23.298;2022-10-17T00:45:44;13.57;;;7.25;;
35675;SDS011;21790;42.668;23.298;2022-10-17T00:48:09;13.43;;;7.40;;
35675;SDS011;21790;42.668;23.298;2022-10-17T00:50:37;13.27;;;8.60;;
35675;SDS011;21790;42.668;23.298;2022-10-17T00:53:05;16.75;;;8.50;;
35675;SDS011;21790;42.668;23.298;2022-10-17T00:55:38;16.58;;;7.82;;
35675;SDS011;21790;42.668;23.298;2022-10-17T00:58:09;18.27;;;8.75;;
35675;SDS011;21790;42.668;23.298;2022-10-17T01:00:35;16.35;;;9.05;;
35675;SDS011;21790;42.668;23.298;2022-10-17T01:03:01;16.85;;;9.40;;
35675;SDS011;21790;42.668;23.298;2022-10-17T01:05:27;14.20;;;8.27;;
35675;SDS011;21790;42.668;23.298;2022-10-17T01:07:53;18.13;;;8.90;;
35675;SDS011;21790;42.668;23.298;2022-10-17T01:10:19;14.93;;;8.45;;
35675;SDS011;21790;42.668;23.298;2022-10-17T01:25:46;16.63;;;8.48;;
35675;SDS011;21790;42.668;23.298;2022-10-17T01:34:13;16.42;;;8.85;;
35675;SDS011;21790;42.668;23.298;2022-10-17T01:42:09;23.35;;;8.95;;
35675;SDS011;21790;42.668;23.298;2022-10-17T01:44:43;16.23;;;8.75;;
35675;SDS011;21790;42.668;23.298;2022-10-17T01:47:18;15.50;;;8.80;;
35675;SDS011;21790;42.668;23.298;2022-10-17T01:49:45;14.10;;;7.28;;
35675;SDS011;21790;42.668;23.298;2022-10-17T01:52:19;15.98;;;8.40;;
35675;SDS011;21790;42.668;23.298;2022-10-17T01:55:11;16.98;;;8.90;;
35675;SDS011;21790;42.668;23.298;2022-10-17T01:57:47;15.57;;;8.23;;
35675;SDS011;21790;42.668;23.298;2022-10-17T02:00:17;14.90;;;8.43;;
35675;SDS011;21790;42.668;23.298;2022-10-17T02:02:47;17.60;;;8.90;;
35675;SDS011;21790;42.668;23.298;2022-10-17T02:05:17;13.55;;;8.65;;
35675;SDS011;21790;42.668;23.298;2022-10-17T02:07:45;16.15;;;8.32;;
35675;SDS011;21790;42.668;23.298;2022-10-17T02:10:29;15.85;;;8.80;;
35675;SDS011;21790;42.668;23.298;2022-10-17T02:13:14;17.88;;;8.15;;
35675;SDS011;21790;42.668;23.298;2022-10-17T02:22:11;18.75;;;8.65;;
35675;SDS011;21790;42.668;23.298;2022-10-17T02:24:50;18.38;;;8.45;;
35675;SDS011;21790;42.668;23.298;2022-10-17T02:30:02;15.45;;;9.15;;
35675;SDS011;21790;42.668;23.298;2022-10-17T02:32:39;19.52;;;8.25;;
35675;SDS011;21790;42.668;23.298;2022-10-17T02:35:12;16.95;;;8.98;;
35675;SDS011;21790;42.668;23.298;2022-10-17T02:37:39;19.48;;;8.13;;
35675;SDS011;21790;42.668;23.298;2022-10-17T02:40:11;11.45;;;7.63;;
35675;SDS011;21790;42.668;23.298;2022-10-17T02:42:39;15.43;;;7.03;;
35675;SDS011;21790;42.668;23.298;2022-10-17T02:45:07;14.65;;;7.10;;
35675;SDS011;21790;42.668;23.298;2022-10-17T02:47:35;17.35;;;7.43;;
35675;SDS011;21790;42.668;23.298;2022-10-17T02:50:10;22.23;;;7.68;;
35675;SDS011;21790;42.668;23.298;2022-10-17T02:52:42;14.10;;;7.78;;
35675;SDS011;21790;42.668;23.298;2022-10-17T02:55:16;14.30;;;6.82;;
35675;SDS011;21790;42.668;23.298;2022-10-17T02:57:43;12.82;;;6.75;;
35675;SDS011;21790;42.668;23.298;2022-10-17T03:02:43;12.70;;;7.15;;
35675;SDS011;21790;42.668;23.298;2022-10-17T03:05:11;12.32;;;7.18;;
35675;SDS011;21790;42.668;23.298;2022-10-17T03:07:38;14.18;;;6.88;;
35675;SDS011;21790;42.668;23.298;2022-10-17T03:10:04;14.85;;;6.68;;
35675;SDS011;21790;42.668;23.298;2022-10-17T03:12:29;15.60;;;7.53;;
35675;SDS011;21790;42.668;23.298;2022-10-17T03:14:55;14.45;;;6.70;;
35675;SDS011;21790;42.668;23.298;2022-10-17T03:17:21;15.25;;;7.55;;
35675;SDS011;21790;42.668;23.298;2022-10-17T03:19:46;13.73;;;7.38;;
35675;SDS011;21790;42.668;23.298;2022-10-17T03:22:12;14.18;;;7.50;;
35675;SDS011;21790;42.668;23.298;2022-10-17T03:24:37;14.50;;;7.07;;
35675;SDS011;21790;42.668;23.298;2022-10-17T03:27:02;11.35;;;6.75;;
35675;SDS011;21790;42.668;23.298;2022-10-17T03:29:28;17.48;;;8.00;;
35675;SDS011;21790;42.668;23.298;2022-10-17T03:31:53;15.50;;;7.65;;
35675;SDS011;21790;42.668;23.298;2022-10-17T03:34:19;13.05;;;7.38;;
35675;SDS011;21790;42.668;23.298;2022-10-17T03:36:44;14.95;;;7.40;;
35675;SDS011;21790;42.668;23.298;2022-10-17T03:39:10;14.20;;;7.78;;
35675;SDS011;21790;42.668;23.298;2022-10-17T03:41:40;12.27;;;7.30;;
35675;SDS011;21790;42.668;23.298;2022-10-17T03:44:05;12.02;;;6.82;;
35675;SDS011;21790;42.668;23.298;2022-10-17T03:46:31;13.48;;;7.25;;
35675;SDS011;21790;42.668;23.298;2022-10-17T03:48:56;13.98;;;7.15;;
35675;SDS011;21790;42.668;23.298;2022-10-17T03:51:24;16.52;;;7.75;;
35675;SDS011;21790;42.668;23.298;2022-10-17T03:53:50;18.13;;;7.28;;
35675;SDS011;21790;42.668;23.298;2022-10-17T03:56:16;14.23;;;7.85;;
35675;SDS011;21790;42.668;23.298;2022-10-17T03:58:46;17.15;;;8.75;;
35675;SDS011;21790;42.668;23.298;2022-10-17T04:01:13;11.43;;;6.85;;
35675;SDS011;21790;42.668;23.298;2022-10-17T04:03:40;13.57;;;7.45;;
35675;SDS011;21790;42.668;23.298;2022-10-17T04:06:07;14.13;;;7.60;;
35675;SDS011;21790;42.668;23.298;2022-10-17T04:08:35;18.00;;;8.10;;
35675;SDS011;21790;42.668;23.298;2022-10-17T04:11:02;17.13;;;7.47;;
35675;SDS011;21790;42.668;23.298;2022-10-17T04:13:29;18.98;;;8.23;;
35675;SDS011;21790;42.668;23.298;2022-10-17T04:18:29;14.23;;;7.65;;
35675;SDS011;21790;42.668;23.298;2022-10-17T04:20:56;16.65;;;7.90;;
35675;SDS011;21790;42.668;23.298;2022-10-17T04:23:22;17.35;;;8.25;;
35675;SDS011;21790;42.668;23.298;2022-10-17T04:25:50;17.02;;;7.22;;
35675;SDS011;21790;42.668;23.298;2022-10-17T04:28:20;18.00;;;8.52;;
35675;SDS011;21790;42.668;23.298;2022-10-17T04:30:46;19.55;;;7.72;;
35675;SDS011;21790;42.668;23.298;2022-10-17T04:33:11;17.20;;;8.15;;
35675;SDS011;21790;42.668;23.298;2022-10-17T04:35:37;33.88;;;8.35;;
35675;SDS011;21790;42.668;23.298;2022-10-17T04:38:02;14.85;;;7.95;;
35675;SDS011;21790;42.668;23.298;2022-10-17T04:40:27;17.15;;;7.38;;
35675;SDS011;21790;42.668;23.298;2022-10-17T04:42:53;22.17;;;8.63;;
35675;SDS011;21790;42.668;23.298;2022-10-17T04:45:19;13.73;;;8.40;;
35675;SDS011;21790;42.668;23.298;2022-10-17T04:47:44;15.23;;;8.18;;
35675;SDS011;21790;42.668;23.298;2022-10-17T04:50:09;19.40;;;9.07;;
35675;SDS011;21790;42.668;23.298;2022-10-17T04:52:35;21.70;;;8.38;;
35675;SDS011;21790;42.668;23.298;2022-10-17T04:55:02;20.17;;;8.65;;
35675;SDS011;21790;42.668;23.298;2022-10-17T04:57:29;27.38;;;11.45;;
35675;SDS011;21790;42.668;23.298;2022-10-17T04:59:54;25.73;;;9.93;;
35675;SDS011;21790;42.668;23.298;2022-10-17T05:02:20;25.33;;;10.35;;
35675;SDS011;21790;42.668;23.298;2022-10-17T05:04:45;22.40;;;10.02;;
35675;SDS011;21790;42.668;23.298;2022-10-17T05:07:11;20.95;;;9.70;;
35675;SDS011;21790;42.668;23.298;2022-10-17T05:09:37;26.20;;;9.75;;
35675;SDS011;21790;42.668;23.298;2022-10-17T05:12:03;17.80;;;9.80;;
35675;SDS011;21790;42.668;23.298;2022-10-17T05:14:28;23.60;;;9.90;;
35675;SDS011;21790;42.668;23.298;2022-10-17T05:16:54;24.95;;;10.18;;
35675;SDS011;21790;42.668;23.298;2022-10-17T05:19:19;21.20;;;10.43;;
35675;SDS011;21790;42.668;23.298;2022-10-17T05:21:45;24.27;;;9.02;;
35675;SDS011;21790;42.668;23.298;2022-10-17T05:24:12;21.08;;;9.00;;
35675;SDS011;21790;42.668;23.298;2022-10-17T05:26:38;31.20;;;10.23;;
35675;SDS011;21790;42.668;23.298;2022-10-17T05:29:04;31.67;;;10.68;;
35675;SDS011;21790;42.668;23.298;2022-10-17T05:31:29;22.08;;;10.27;;
35675;SDS011;21790;42.668;23.298;2022-10-17T05:33:58;21.50;;;10.95;;
35675;SDS011;21790;42.668;23.298;2022-10-17T05:36:26;24.67;;;9.98;;
35675;SDS011;21790;42.668;23.298;2022-10-17T05:38:52;24.17;;;10.35;;
35675;SDS011;21790;42.668;23.298;2022-10-17T05:41:18;19.42;;;8.40;;
35675;SDS011;21790;42.668;23.298;2022-10-17T05:43:44;26.45;;;10.43;;
35675;SDS011;21790;42.668;23.298;2022-10-17T05:46:10;29.20;;;10.88;;
35675;SDS011;21790;42.668;23.298;2022-10-17T05:48:37;26.70;;;11.00;;
35675;SDS011;21790;42.668;23.298;2022-10-17T05:51:06;35.50;;;11.55;;
35675;SDS011;21790;42.668;23.298;2022-10-17T05:53:36;26.70;;;10.52;;
35675;SDS011;21790;42.668;23.298;2022-10-17T05:56:11;28.45;;;10.90;;
35675;SDS011;21790;42.668;23.298;2022-10-17T05:58:43;29.15;;;10.13;;
35675;SDS011;21790;42.668;23.298;2022-10-17T06:01:12;24.13;;;10.65;;
35675;SDS011;21790;42.668;23.298;2022-10-17T06:06:14;20.77;;;10.60;;
35675;SDS011;21790;42.668;23.298;2022-10-17T06:08:40;22.33;;;10.63;;
35675;SDS011;21790;42.668;23.298;2022-10-17T06:13:41;18.33;;;9.55;;
35675;SDS011;21790;42.668;23.298;2022-10-17T06:16:07;17.58;;;9.55;;
35675;SDS011;21790;42.668;23.298;2022-10-17T06:18:33;31.98;;;11.10;;
35675;SDS011;21790;42.668;23.298;2022-10-17T06:21:03;29.98;;;11.15;;
35675;SDS011;21790;42.668;23.298;2022-10-17T06:23:30;30.27;;;11.40;;
35675;SDS011;21790;42.668;23.298;2022-10-17T06:25:59;19.23;;;10.75;;
35675;SDS011;21790;42.668;23.298;2022-10-17T06:28:26;20.27;;;11.18;;
35675;SDS011;21790;42.668;23.298;2022-10-17T06:30:51;24.90;;;12.45;;
35675;SDS011;21790;42.668;23.298;2022-10-17T06:33:28;24.48;;;12.65;;
35675;SDS011;21790;42.668;23.298;2022-10-17T06:35:54;28.40;;;13.45;;
35675;SDS011;21790;42.668;23.298;2022-10-17T06:43:13;30.00;;;13.90;;
35675;SDS011;21790;42.668;23.298;2022-10-17T06:49:01;19.37;;;9.97;;
35675;SDS011;21790;42.668;23.298;2022-10-17T06:56:39;16.77;;;8.95;;
35675;SDS011;21790;42.668;23.298;2022-10-17T06:59:05;24.77;;;10.10;;
35675;SDS011;21790;42.668;23.298;2022-10-17T07:01:32;21.33;;;10.55;;
35675;SDS011;21790;42.668;23.298;2022-10-17T07:03:58;21.08;;;9.52;;
35675;SDS011;21790;42.668;23.298;2022-10-17T07:06:24;18.40;;;9.73;;
35675;SDS011;21790;42.668;23.298;2022-10-17T07:08:51;20.05;;;9.30;;
35675;SDS011;21790;42.668;23.298;2022-10-17T07:11:18;15.57;;;9.57;;
35675;SDS011;21790;42.668;23.298;2022-10-17T07:13:45;19.33;;;9.05;;
35675;SDS011;21790;42.668;23.298;2022-10-17T07:16:11;16.67;;;8.85;;
35675;SDS011;21790;42.668;23.298;2022-10-17T07:18:38;15.90;;;8.02;;
35675;SDS011;21790;42.668;23.298;2022-10-17T07:21:05;17.98;;;8.38;;
35675;SDS011;21790;42.668;23.298;2022-10-17T07:23:32;27.00;;;9.63;;
35675;SDS011;21790;42.668;23.298;2022-10-17T07:31:12;25.88;;;10.00;;
35675;SDS011;21790;42.668;23.298;2022-10-17T07:33:43;21.83;;;9.30;;
35675;SDS011;21790;42.668;23.298;2022-10-17T07:36:09;16.10;;;8.90;;
35675;SDS011;21790;42.668;23.298;2022-10-17T07:38:35;14.98;;;8.15;;
35675;SDS011;21790;42.668;23.298;2022-10-17T07:41:02;13.57;;;8.00;;
35675;SDS011;21790;42.668;23.298;2022-10-17T07:43:30;13.15;;;7.60;;
35675;SDS011;21790;42.668;23.298;2022-10-17T07:45:56;24.95;;;8.75;;
35675;SDS011;21790;42.668;23.298;2022-10-17T07:48:22;24.88;;;9.65;;
35675;SDS011;21790;42.668;23.298;2022-10-17T07:50:49;23.80;;;10.60;;
35675;SDS011;21790;42.668;23.298;2022-10-17T07:53:14;20.70;;;11.00;;
35675;SDS011;21790;42.668;23.298;2022-10-17T07:55:41;19.13;;;9.85;;
35675;SDS011;21790;42.668;23.298;2022-10-17T07:58:07;18.27;;;9.85;;
35675;SDS011;21790;42.668;23.298;2022-10-17T08:00:33;17.67;;;9.50;;
35675;SDS011;21790;42.668;23.298;2022-10-17T08:03:00;18.30;;;9.30;;
35675;SDS011;21790;42.668;23.298;2022-10-17T08:05:25;14.90;;;8.65;;
35675;SDS011;21790;42.668;23.298;2022-10-17T08:07:51;27.42;;;10.50;;
35675;SDS011;21790;42.668;23.298;2022-10-17T08:10:17;22.35;;;10.05;;
35675;SDS011;21790;42.668;23.298;2022-10-17T08:12:47;19.55;;;9.57;;
35675;SDS011;21790;42.668;23.298;2022-10-17T08:20:39;20.73;;;9.70;;
35675;SDS011;21790;42.668;23.298;2022-10-17T08:24:02;18.85;;;10.02;;
35675;SDS011;21790;42.668;23.298;2022-10-17T08:28:59;28.08;;;11.25;;
35675;SDS011;21790;42.668;23.298;2022-10-17T08:31:26;20.83;;;10.77;;
35675;SDS011;21790;42.668;23.298;2022-10-17T08:39:16;17.38;;;8.85;;
35675;SDS011;21790;42.668;23.298;2022-10-17T08:44:48;20.38;;;8.98;;
35675;SDS011;21790;42.668;23.298;2022-10-17T08:47:44;14.20;;;8.05;;
35675;SDS011;21790;42.668;23.298;2022-10-17T08:53:01;12.55;;;7.63;;
35675;SDS011;21790;42.668;23.298;2022-10-17T08:55:45;14.30;;;7.85;;
35675;SDS011;21790;42.668;23.298;2022-10-17T08:58:19;13.70;;;8.00;;
35675;SDS011;21790;42.668;23.298;2022-10-17T09:06:31;20.83;;;10.02;;
35675;SDS011;21790;42.668;23.298;2022-10-17T09:15:09;23.50;;;10.57;;
35675;SDS011;21790;42.668;23.298;2022-10-17T09:21:21;19.35;;;9.52;;
35675;SDS011;21790;42.668;23.298;2022-10-17T09:23:19;16.85;;;8.77;;
35675;SDS011;21790;42.668;23.298;2022-10-17T09:25:55;22.23;;;9.80;;
35675;SDS011;21790;42.668;23.298;2022-10-17T09:28:35;15.38;;;9.20;;
35675;SDS011;21790;42.668;23.298;2022-10-17T09:33:48;18.00;;;9.25;;
35675;SDS011;21790;42.668;23.298;2022-10-17T09:36:27;16.38;;;8.60;;
35675;SDS011;21790;42.668;23.298;2022-10-17T09:38:56;12.98;;;7.28;;
35675;SDS011;21790;42.668;23.298;2022-10-17T09:47:10;14.60;;;6.57;;
35675;SDS011;21790;42.668;23.298;2022-10-17T09:49:49;10.05;;;6.07;;
35675;SDS011;21790;42.668;23.298;2022-10-17T09:52:20;12.57;;;5.47;;
35675;SDS011;21790;42.668;23.298;2022-10-17T09:58:02;9.70;;;5.53;;
35675;SDS011;21790;42.668;23.298;2022-10-17T10:06:22;7.25;;;3.72;;
35675;SDS011;21790;42.668;23.298;2022-10-17T10:08:55;8.75;;;4.22;;
35675;SDS011;21790;42.668;23.298;2022-10-17T10:15:30;6.33;;;3.03;;
35675;SDS011;21790;42.668;23.298;2022-10-17T10:18:02;7.50;;;3.58;;
35675;SDS011;21790;42.668;23.298;2022-10-17T10:26:51;7.78;;;2.83;;
35675;SDS011;21790;42.668;23.298;2022-10-17T10:34:56;8.98;;;2.65;;
35675;SDS011;21790;42.668;23.298;2022-10-17T10:37:28;6.03;;;2.53;;
35675;SDS011;21790;42.668;23.298;2022-10-17T10:40:03;3.90;;;2.40;;
35675;SDS011;21790;42.668;23.298;2022-10-17T10:42:32;2.80;;;2.38;;
35675;SDS011;21790;42.668;23.298;2022-10-17T10:45:23;4.68;;;2.83;;
35675;SDS011;21790;42.668;23.298;2022-10-17T10:50:35;7.95;;;2.22;;
35675;SDS011;21790;42.668;23.298;2022-10-17T10:53:48;4.45;;;2.25;;
35675;SDS011;21790;42.668;23.298;2022-10-17T10:56:19;3.40;;;1.70;;
35675;SDS011;21790;42.668;23.298;2022-10-17T10:59:03;5.90;;;2.83;;
35675;SDS011;21790;42.668;23.298;2022-10-17T11:07:23;4.88;;;2.65;;
35675;SDS011;21790;42.668;23.298;2022-10-17T11:10:18;6.53;;;2.45;;
35675;SDS011;21790;42.668;23.298;2022-10-17T11:15:58;4.65;;;2.58;;
35675;SDS011;21790;42.668;23.298;2022-10-17T11:27:06;5.90;;;2.70;;
35675;SDS011;21790;42.668;23.298;2022-10-17T11:29:36;6.50;;;3.38;;
35675;SDS011;21790;42.668;23.298;2022-10-17T11:32:21;8.63;;;2.45;;
35675;SDS011;21790;42.668;23.298;2022-10-17T11:37:43;8.23;;;1.95;;
35675;SDS011;21790;42.668;23.298;2022-10-17T11:45:16;5.00;;;2.58;;
35675;SDS011;21790;42.668;23.298;2022-10-17T11:47:50;6.10;;;2.20;;
35675;SDS011;21790;42.668;23.298;2022-10-17T11:58:09;8.57;;;2.60;;
35675;SDS011;21790;42.668;23.298;2022-10-17T12:09:50;4.68;;;2.15;;
35675;SDS011;21790;42.668;23.298;2022-10-17T12:12:23;3.55;;;2.15;;
35675;SDS011;21790;42.668;23.298;2022-10-17T12:14:53;4.20;;;2.40;;
35675;SDS011;21790;42.668;23.298;2022-10-17T12:17:45;4.43;;;2.47;;
35675;SDS011;21790;42.668;23.298;2022-10-17T12:25:54;3.95;;;2.58;;
35675;SDS011;21790;42.668;23.298;2022-10-17T12:28:41;3.80;;;2.22;;
35675;SDS011;21790;42.668;23.298;2022-10-17T12:59:52;6.93;;;3.00;;
35675;SDS011;21790;42.668;23.298;2022-10-17T13:02:24;5.72;;;2.90;;
35675;SDS011;21790;42.668;23.298;2022-10-17T13:04:56;5.15;;;2.78;;
35675;SDS011;21790;42.668;23.298;2022-10-17T13:07:30;3.00;;;2.60;;
35675;SDS011;21790;42.668;23.298;2022-10-17T13:09:59;4.00;;;2.60;;
35675;SDS011;21790;42.668;23.298;2022-10-17T13:12:29;4.05;;;2.25;;
35675;SDS011;21790;42.668;23.298;2022-10-17T13:14:59;7.18;;;2.38;;
35675;SDS011;21790;42.668;23.298;2022-10-17T13:17:30;4.82;;;1.90;;
35675;SDS011;21790;42.668;23.298;2022-10-17T13:19:56;5.82;;;2.47;;
35675;SDS011;21790;42.668;23.298;2022-10-17T13:22:28;5.18;;;2.70;;
35675;SDS011;21790;42.668;23.298;2022-10-17T13:25:11;3.22;;;2.22;;
35675;SDS011;21790;42.668;23.298;2022-10-17T13:27:41;5.20;;;2.35;;
35675;SDS011;21790;42.668;23.298;2022-10-17T13:30:27;7.07;;;2.40;;
35675;SDS011;21790;42.668;23.298;2022-10-17T13:33:01;6.68;;;2.55;;
35675;SDS011;21790;42.668;23.298;2022-10-17T13:35:28;5.53;;;2.58;;
35675;SDS011;21790;42.668;23.298;2022-10-17T13:37:58;4.85;;;2.22;;
35675;SDS011;21790;42.668;23.298;2022-10-17T13:45:59;5.45;;;2.60;;
35675;SDS011;21790;42.668;23.298;2022-10-17T13:48:29;4.30;;;2.58;;
35675;SDS011;21790;42.668;23.298;2022-10-17T13:50:58;6.35;;;2.17;;
35675;SDS011;21790;42.668;23.298;2022-10-17T13:53:30;2.90;;;2.03;;
35675;SDS011;21790;42.668;23.298;2022-10-17T13:56:05;3.47;;;1.95;;
35675;SDS011;21790;42.668;23.298;2022-10-17T13:58:45;5.43;;;2.00;;
35675;SDS011;21790;42.668;23.298;2022-10-17T14:01:13;6.28;;;2.25;;
35675;SDS011;21790;42.668;23.298;2022-10-17T14:03:40;3.50;;;2.20;;
35675;SDS011;21790;42.668;23.298;2022-10-17T14:09:23;3.58;;;2.30;;
35675;SDS011;21790;42.668;23.298;2022-10-17T14:12:02;4.53;;;2.88;;
35675;SDS011;21790;42.668;23.298;2022-10-17T14:19:50;10.68;;;2.72;;
35675;SDS011;21790;42.668;23.298;2022-10-17T14:22:47;4.32;;;2.33;;
35675;SDS011;21790;42.668;23.298;2022-10-17T14:32:50;7.78;;;2.90;;
35675;SDS011;21790;42.668;23.298;2022-10-17T14:35:21;8.48;;;2.88;;
35675;SDS011;21790;42.668;23.298;2022-10-17T14:37:48;6.00;;;2.67;;
35675;SDS011;21790;42.668;23.298;2022-10-17T14:42:52;6.13;;;2.80;;
35675;SDS011;21790;42.668;23.298;2022-10-17T14:50:40;4.65;;;2.63;;
35675;SDS011;21790;42.668;23.298;2022-10-17T14:55:39;4.72;;;2.65;;
35675;SDS011;21790;42.668;23.298;2022-10-17T14:58:29;7.65;;;2.67;;
35675;SDS011;21790;42.668;23.298;2022-10-17T15:03:28;5.32;;;2.72;;
35675;SDS011;21790;42.668;23.298;2022-10-17T15:05:53;5.35;;;3.05;;
35675;SDS011;21790;42.668;23.298;2022-10-17T15:08:20;5.70;;;3.03;;
35675;SDS011;21790;42.668;23.298;2022-10-17T15:10:48;4.13;;;2.75;;
35675;SDS011;21790;42.668;23.298;2022-10-17T15:13:14;5.43;;;3.15;;
35675;SDS011;21790;42.668;23.298;2022-10-17T15:15:48;13.27;;;3.17;;
35675;SDS011;21790;42.668;23.298;2022-10-17T15:23:31;7.70;;;3.17;;
35675;SDS011;21790;42.668;23.298;2022-10-17T15:25:57;9.48;;;3.50;;
35675;SDS011;21790;42.668;23.298;2022-10-17T15:28:23;5.60;;;3.00;;
35675;SDS011;21790;42.668;23.298;2022-10-17T15:30:48;5.93;;;3.13;;
35675;SDS011;21790;42.668;23.298;2022-10-17T15:33:14;6.85;;;3.53;;
35675;SDS011;21790;42.668;23.298;2022-10-17T15:35:39;7.53;;;3.85;;
35675;SDS011;21790;42.668;23.298;2022-10-17T15:38:07;7.35;;;3.67;;
35675;SDS011;21790;42.668;23.298;2022-10-17T15:40:33;9.95;;;3.85;;
35675;SDS011;21790;42.668;23.298;2022-10-17T15:42:58;8.80;;;4.70;;
35675;SDS011;21790;42.668;23.298;2022-10-17T15:45:24;9.55;;;4.10;;
35675;SDS011;21790;42.668;23.298;2022-10-17T15:47:50;8.38;;;4.78;;
35675;SDS011;21790;42.668;23.298;2022-10-17T15:50:17;8.70;;;3.88;;
35675;SDS011;21790;42.668;23.298;2022-10-17T15:52:43;11.15;;;4.75;;
35675;SDS011;21790;42.668;23.298;2022-10-17T15:55:11;17.17;;;5.35;;
35675;SDS011;21790;42.668;23.298;2022-10-17T15:57:37;12.38;;;5.82;;
35675;SDS011;21790;42.668;23.298;2022-10-17T16:00:06;14.27;;;5.70;;
35675;SDS011;21790;42.668;23.298;2022-10-17T16:02:39;12.95;;;4.47;;
35675;SDS011;21790;42.668;23.298;2022-10-17T16:05:08;7.95;;;3.80;;
35675;SDS011;21790;42.668;23.298;2022-10-17T16:07:40;9.05;;;4.28;;
35675;SDS011;21790;42.668;23.298;2022-10-17T16:10:06;11.13;;;4.63;;
35675;SDS011;21790;42.668;23.298;2022-10-17T16:12:34;5.80;;;3.55;;
35675;SDS011;21790;42.668;23.298;2022-10-17T16:15:05;9.85;;;4.47;;
35675;SDS011;21790;42.668;23.298;2022-10-17T16:17:32;8.02;;;3.90;;
35675;SDS011;21790;42.668;23.298;2022-10-17T16:19:57;8.98;;;4.15;;
35675;SDS011;21790;42.668;23.298;2022-10-17T16:22:25;13.93;;;4.30;;
35675;SDS011;21790;42.668;23.298;2022-10-17T16:24:57;12.05;;;5.22;;
35675;SDS011;21790;42.668;23.298;2022-10-17T16:27:32;19.38;;;6.15;;
35675;SDS011;21790;42.668;23.298;2022-10-17T16:29:58;11.60;;;6.47;;
35675;SDS011;21790;42.668;23.298;2022-10-17T16:44:31;19.80;;;8.00;;
35675;SDS011;21790;42.668;23.298;2022-10-17T16:49:25;18.25;;;8.25;;
35675;SDS011;21790;42.668;23.298;2022-10-17T16:51:55;32.50;;;10.95;;
35675;SDS011;21790;42.668;23.298;2022-10-17T16:54:21;31.55;;;10.23;;
35675;SDS011;21790;42.668;23.298;2022-10-17T16:56:51;25.67;;;8.88;;
35675;SDS011;21790;42.668;23.298;2022-10-17T16:59:17;32.28;;;9.13;;
35675;SDS011;21790;42.668;23.298;2022-10-17T17:12:33;28.77;;;10.50;;
35675;SDS011;21790;42.668;23.298;2022-10-17T17:15:00;31.20;;;9.40;;
35675;SDS011;21790;42.668;23.298;2022-10-17T17:17:26;31.13;;;10.85;;
35675;SDS011;21790;42.668;23.298;2022-10-17T17:19:52;27.27;;;10.10;;
35675;SDS011;21790;42.668;23.298;2022-10-17T17:24:52;34.10;;;11.18;;
35675;SDS011;21790;42.668;23.298;2022-10-17T17:27:18;24.15;;;10.32;;
35675;SDS011;21790;42.668;23.298;2022-10-17T17:29:52;29.70;;;11.32;;
35675;SDS011;21790;42.668;23.298;2022-10-17T17:35:06;22.38;;;10.63;;
35675;SDS011;21790;42.668;23.298;2022-10-17T17:37:35;29.10;;;10.98;;
35675;SDS011;21790;42.668;23.298;2022-10-17T17:40:00;23.20;;;10.95;;
35675;SDS011;21790;42.668;23.298;2022-10-17T17:42:26;28.63;;;10.48;;
35675;SDS011;21790;42.668;23.298;2022-10-17T17:44:51;29.85;;;13.25;;
35675;SDS011;21790;42.668;23.298;2022-10-17T17:47:17;40.13;;;15.25;;
35675;SDS011;21790;42.668;23.298;2022-10-17T17:52:28;27.95;;;11.68;;
35675;SDS011;21790;42.668;23.298;2022-10-17T17:54:54;28.65;;;11.57;;
35675;SDS011;21790;42.668;23.298;2022-10-17T17:57:20;40.63;;;12.55;;
35675;SDS011;21790;42.668;23.298;2022-10-17T17:59:45;29.27;;;11.73;;
35675;SDS011;21790;42.668;23.298;2022-10-17T18:02:13;31.42;;;11.52;;
35675;SDS011;21790;42.668;23.298;2022-10-17T18:04:39;31.45;;;12.85;;
35675;SDS011;21790;42.668;23.298;2022-10-17T18:07:12;37.45;;;15.38;;
35675;SDS011;21790;42.668;23.298;2022-10-17T18:21:27;32.47;;;13.70;;
35675;SDS011;21790;42.668;23.298;2022-10-17T18:23:54;39.08;;;13.82;;
35675;SDS011;21790;42.668;23.298;2022-10-17T18:26:33;34.17;;;12.82;;
35675;SDS011;21790;42.668;23.298;2022-10-17T18:29:02;33.92;;;13.52;;
35675;SDS011;21790;42.668;23.298;2022-10-17T18:36:42;29.95;;;13.18;;
35675;SDS011;21790;42.668;23.298;2022-10-17T18:39:10;30.20;;;13.98;;
35675;SDS011;21790;42.668;23.298;2022-10-17T18:41:37;36.38;;;13.80;;
35675;SDS011;21790;42.668;23.298;2022-10-17T18:44:04;36.13;;;14.13;;
35675;SDS011;21790;42.668;23.298;2022-10-17T18:46:34;27.08;;;11.40;;
35675;SDS011;21790;42.668;23.298;2022-10-17T18:49:04;37.65;;;12.50;;
35675;SDS011;21790;42.668;23.298;2022-10-17T18:51:30;25.63;;;12.43;;
35675;SDS011;21790;42.668;23.298;2022-10-17T18:53:56;30.75;;;11.30;;
35675;SDS011;21790;42.668;23.298;2022-10-17T18:56:26;35.20;;;13.38;;
35675;SDS011;21790;42.668;23.298;2022-10-17T18:58:52;30.00;;;12.00;;
35675;SDS011;21790;42.668;23.298;2022-10-17T19:01:21;33.05;;;12.15;;
35675;SDS011;21790;42.668;23.298;2022-10-17T19:03:48;28.15;;;12.40;;
35675;SDS011;21790;42.668;23.298;2022-10-17T19:06:17;34.47;;;14.10;;
35675;SDS011;21790;42.668;23.298;2022-10-17T19:08:45;27.40;;;13.05;;
35675;SDS011;21790;42.668;23.298;2022-10-17T19:11:13;37.58;;;12.88;;
35675;SDS011;21790;42.668;23.298;2022-10-17T19:13:40;32.25;;;12.70;;
35675;SDS011;21790;42.668;23.298;2022-10-17T19:16:08;34.22;;;13.48;;
35675;SDS011;21790;42.668;23.298;2022-10-17T19:24:34;29.10;;;13.63;;
35675;SDS011;21790;42.668;23.298;2022-10-17T19:27:18;21.33;;;11.05;;
35675;SDS011;21790;42.668;23.298;2022-10-17T19:29:46;29.05;;;12.15;;
35675;SDS011;21790;42.668;23.298;2022-10-17T19:32:11;22.58;;;12.07;;
35675;SDS011;21790;42.668;23.298;2022-10-17T19:34:37;31.77;;;11.85;;
35675;SDS011;21790;42.668;23.298;2022-10-17T19:37:02;19.50;;;9.60;;
35675;SDS011;21790;42.668;23.298;2022-10-17T19:39:29;25.38;;;11.68;;